createdAt,value
2023-02-05T00:00:05.361Z,13.23
2023-02-05T00:02:36.135Z,14.80
2023-02-05T00:05:07.199Z,13.20
2023-02-05T00:07:40.706Z,14.53
2023-02-05T00:10:11.937Z,12.93
2023-02-05T00:12:44.629Z,13.60
2023-02-05T00:15:15.673Z,15.00
2023-02-05T00:17:46.395Z,13.97
2023-02-05T00:20:17.107Z,14.00
2023-02-05T00:22:50.473Z,14.70
2023-02-05T00:25:21.318Z,14.07
2023-02-05T00:27:52.054Z,13.20
2023-02-05T00:30:23.153Z,13.10
2023-02-05T00:32:53.936Z,13.17
2023-02-05T00:35:24.720Z,13.73
2023-02-05T00:37:58.271Z,13.77
2023-02-05T00:40:29.064Z,15.03
2023-02-05T00:42:59.831Z,13.90
2023-02-05T00:45:35.436Z,14.57
2023-02-05T00:48:07.857Z,14.70
2023-02-05T00:50:38.858Z,13.63
2023-02-05T00:53:12.237Z,14.23
2023-02-05T00:55:42.947Z,14.03
2023-02-05T00:58:13.887Z,13.93
2023-02-05T01:00:45.974Z,14.00
2023-02-05T01:03:17.121Z,14.13
2023-02-05T01:05:48.307Z,14.47
2023-02-05T01:08:21.632Z,13.93
2023-02-05T01:10:54.350Z,13.87
2023-02-05T01:13:25.062Z,14.40
2023-02-05T01:15:55.877Z,14.80
2023-02-05T01:18:29.781Z,13.50
2023-02-05T01:21:00.584Z,12.83
2023-02-05T01:23:34.229Z,12.70
2023-02-05T01:26:04.966Z,12.43
2023-02-05T01:28:35.752Z,12.63
2023-02-05T01:31:09.300Z,12.93
2023-02-05T01:33:40.193Z,13.77
2023-02-05T01:36:11.813Z,14.70
2023-02-05T01:38:45.321Z,13.67
2023-02-05T01:41:16.405Z,13.80
2023-02-05T01:44:02.083Z,14.43
2023-02-05T01:46:34.736Z,13.17
2023-02-05T01:49:07.279Z,15.07
2023-02-05T01:51:41.615Z,13.57
2023-02-05T01:54:15.204Z,13.70
2023-02-05T01:56:49.557Z,13.70
2023-02-05T01:59:24.375Z,13.17
2023-02-05T02:01:56.126Z,12.53
2023-02-05T02:04:37.296Z,13.20
2023-02-05T02:07:09.916Z,13.20
2023-02-05T02:09:45.169Z,15.80
2023-02-05T02:12:18.926Z,13.90
2023-02-05T02:14:54.057Z,12.80
2023-02-05T02:17:28.874Z,14.83
2023-02-05T02:20:04.426Z,14.07
2023-02-05T02:23:08.200Z,13.70
2023-02-05T02:26:13.877Z,14.10
2023-02-05T02:28:52.074Z,12.83
2023-02-05T02:31:30.539Z,13.30
2023-02-05T02:34:09.119Z,13.60
2023-02-05T02:36:45.525Z,13.47
2023-02-05T02:39:21.665Z,13.10
2023-02-05T02:41:58.558Z,13.80
2023-02-05T02:44:37.828Z,12.80
2023-02-05T02:47:15.091Z,12.73
2023-02-05T02:49:52.624Z,12.57
2023-02-05T02:52:26.367Z,13.20
2023-02-05T02:55:05.556Z,13.00
2023-02-05T02:57:38.950Z,12.10
2023-02-05T03:00:16.253Z,13.07
2023-02-05T03:02:49.927Z,12.30
2023-02-05T03:05:24.688Z,13.63
2023-02-05T03:08:00.769Z,12.70
2023-02-05T03:10:41.074Z,12.50
2023-02-05T03:13:13.160Z,13.80
2023-02-05T03:15:48.722Z,12.30
2023-02-05T03:18:21.269Z,12.33
2023-02-05T03:21:00.732Z,11.53
2023-02-05T03:23:32.383Z,12.43
2023-02-05T03:26:03.402Z,11.83
2023-02-05T03:28:34.520Z,12.67
2023-02-05T03:31:15.848Z,11.63
2023-02-05T03:33:58.455Z,12.77
2023-02-05T03:36:38.864Z,12.33
2023-02-05T03:39:19.716Z,12.10
2023-02-05T03:42:28.001Z,12.10
2023-02-05T03:45:14.788Z,10.83
2023-02-05T03:48:02.787Z,12.07
2023-02-05T03:50:40.066Z,13.30
2023-02-05T03:53:18.274Z,13.57
2023-02-05T03:55:55.007Z,14.27
2023-02-05T03:58:30.145Z,14.07
2023-02-05T04:01:03.909Z,14.20
2023-02-05T04:03:37.268Z,14.50
2023-02-05T04:06:09.610Z,14.77
2023-02-05T04:08:40.408Z,14.07
2023-02-05T04:11:11.124Z,15.50
2023-02-05T04:13:41.901Z,14.70
2023-02-05T04:16:12.769Z,15.40
2023-02-05T04:18:46.107Z,14.33
2023-02-05T04:21:16.832Z,15.10
2023-02-05T04:23:47.928Z,15.53
2023-02-05T04:26:18.883Z,17.17
2023-02-05T04:28:49.683Z,16.30
2023-02-05T04:31:20.454Z,15.57
2023-02-05T04:33:54.143Z,16.37
2023-02-05T04:36:25.141Z,15.67
2023-02-05T04:38:55.829Z,16.07
2023-02-05T04:41:26.584Z,15.20
2023-02-05T04:43:57.287Z,16.70
2023-02-05T04:46:28.111Z,15.03
2023-02-05T04:49:01.562Z,15.70
2023-02-05T04:51:32.411Z,16.37
2023-02-05T04:54:03.450Z,16.80
2023-02-05T04:56:37.073Z,15.63
2023-02-05T04:59:08.083Z,16.10
2023-02-05T05:01:38.890Z,16.53
2023-02-05T05:04:12.232Z,18.27
2023-02-05T05:06:43.148Z,18.20
2023-02-05T05:09:13.860Z,17.97
2023-02-05T05:11:44.691Z,19.47
2023-02-05T05:14:15.393Z,19.23
2023-02-05T05:16:46.195Z,20.70
2023-02-05T05:19:19.848Z,19.77
2023-02-05T05:21:50.745Z,20.50
2023-02-05T05:24:21.701Z,20.60
2023-02-05T05:26:52.446Z,19.20
2023-02-05T05:29:26.021Z,20.20
2023-02-05T05:31:57.483Z,21.43
2023-02-05T05:34:30.879Z,22.40
2023-02-05T05:37:01.628Z,21.13
2023-02-05T05:39:45.119Z,23.07
2023-02-05T05:42:28.392Z,22.10
2023-02-05T05:44:59.425Z,21.40
2023-02-05T05:47:30.213Z,21.40
2023-02-05T05:50:03.757Z,19.03
2023-02-05T05:52:34.563Z,21.20
2023-02-05T05:55:08.155Z,20.87
2023-02-05T05:57:38.926Z,19.70
2023-02-05T06:00:10.910Z,22.53
2023-02-05T06:02:44.765Z,20.93
2023-02-05T06:05:18.450Z,22.00
2023-02-05T06:07:49.257Z,22.47
2023-02-05T06:10:20.052Z,20.50
2023-02-05T06:12:53.102Z,23.03
2023-02-05T06:15:27.147Z,22.77
2023-02-05T06:17:58.018Z,21.53
2023-02-05T06:20:31.409Z,22.80
2023-02-05T06:23:04.655Z,23.70
2023-02-05T06:25:35.796Z,23.87
2023-02-05T06:28:07.152Z,27.43
2023-02-05T06:30:37.944Z,23.97
2023-02-05T06:33:08.780Z,25.60
2023-02-05T06:35:55.386Z,27.70
2023-02-05T06:38:26.506Z,26.90
2023-02-05T06:40:57.578Z,29.60
2023-02-05T06:43:29.092Z,29.47
2023-02-05T06:45:59.984Z,30.23
2023-02-05T06:48:33.645Z,30.20
2023-02-05T06:51:07.777Z,29.90
2023-02-05T06:53:38.561Z,31.87
2023-02-05T06:56:09.705Z,31.33
2023-02-05T06:58:42.753Z,31.27
2023-02-05T07:01:13.550Z,33.03
2023-02-05T07:03:44.455Z,33.57
2023-02-05T07:06:20.138Z,33.40
2023-02-05T07:08:51.062Z,34.20
2023-02-05T07:11:22.656Z,33.47
2023-02-05T07:13:55.533Z,33.60
2023-02-05T07:16:26.466Z,46.80
2023-02-05T07:18:57.309Z,39.60
2023-02-05T07:21:30.792Z,42.70
2023-02-05T07:24:01.584Z,37.87
2023-02-05T07:26:32.631Z,36.80
2023-02-05T07:29:03.531Z,34.47
2023-02-05T07:31:34.404Z,36.63
2023-02-05T07:34:05.261Z,36.07
2023-02-05T07:36:38.583Z,34.33
2023-02-05T07:39:09.305Z,34.00
2023-02-05T07:41:40.181Z,33.17
2023-02-05T07:44:11.017Z,33.20
2023-02-05T07:46:45.067Z,33.23
2023-02-05T07:49:15.864Z,32.23
2023-02-05T07:51:49.222Z,31.77
2023-02-05T07:54:19.971Z,32.30
2023-02-05T07:56:50.721Z,29.03
2023-02-05T07:59:21.475Z,30.27
2023-02-05T08:01:52.378Z,28.27
2023-02-05T08:04:25.160Z,27.50
2023-02-05T08:06:58.544Z,25.93
2023-02-05T08:09:29.541Z,24.83
2023-02-05T08:12:00.242Z,23.23
2023-02-05T08:14:31.289Z,22.00
2023-02-05T08:17:02.203Z,18.80
2023-02-05T08:19:33.150Z,18.27
2023-02-05T08:22:06.560Z,18.57
2023-02-05T08:24:37.289Z,18.00
2023-02-05T08:27:08.073Z,20.03
2023-02-05T08:29:38.805Z,20.20
2023-02-05T08:32:09.584Z,17.53
2023-02-05T08:34:40.332Z,18.20
2023-02-05T08:37:13.914Z,15.97
2023-02-05T08:39:45.216Z,19.50
2023-02-05T08:42:16.234Z,16.50
2023-02-05T08:44:48.389Z,18.40
2023-02-05T08:47:21.982Z,17.83
2023-02-05T08:49:52.735Z,18.50
2023-02-05T08:52:26.118Z,18.57
2023-02-05T08:54:59.828Z,16.40
2023-02-05T08:57:31.147Z,14.83
2023-02-05T09:00:02.044Z,14.10
2023-02-05T09:02:32.902Z,11.77
2023-02-05T09:05:09.776Z,11.67
2023-02-05T09:15:05.776Z,5.17
2023-02-05T09:17:36.541Z,4.13
2023-02-05T09:20:09.489Z,3.40
2023-02-05T09:22:40.274Z,3.13
2023-02-05T09:25:12.189Z,3.33
2023-02-05T09:27:42.932Z,3.20
2023-02-05T09:30:17.394Z,2.20
2023-02-05T09:32:48.213Z,2.10
2023-02-05T09:35:19.105Z,2.40
2023-02-05T09:37:49.891Z,1.80
2023-02-05T09:40:24.855Z,1.60
2023-02-05T09:43:03.694Z,1.40
2023-02-05T09:45:55.754Z,1.50
2023-02-05T09:48:43.592Z,1.67
2023-02-05T09:51:15.870Z,1.40
2023-02-05T09:53:50.497Z,1.30
2023-02-05T09:56:26.028Z,1.47
2023-02-05T09:59:00.782Z,1.40
2023-02-05T10:01:43.625Z,1.10
2023-02-05T10:04:18.190Z,1.50
2023-02-05T10:07:20.634Z,1.20
2023-02-05T10:10:03.543Z,1.00
2023-02-05T10:12:46.280Z,1.13
2023-02-05T10:15:35.397Z,2.03
2023-02-05T10:18:17.629Z,1.13
2023-02-05T10:21:01.287Z,1.87
2023-02-05T10:23:49.292Z,1.40
2023-02-05T10:26:20.773Z,1.20
2023-02-05T10:29:15.834Z,1.30
2023-02-05T10:31:54.386Z,1.00
2023-02-05T10:34:46.761Z,1.30
2023-02-05T10:37:26.050Z,0.90
2023-02-05T10:40:00.131Z,1.10
2023-02-05T10:42:36.508Z,0.97
2023-02-05T10:45:19.382Z,1.37
2023-02-05T10:48:19.262Z,1.00
2023-02-05T10:50:59.962Z,1.40
2023-02-05T10:53:33.728Z,1.60
2023-02-05T10:56:06.820Z,1.23
2023-02-05T10:58:48.624Z,1.60
2023-02-05T11:01:24.844Z,1.83
2023-02-05T11:04:03.313Z,1.90
2023-02-05T11:06:42.179Z,3.20
2023-02-05T11:09:36.071Z,2.33
2023-02-05T11:12:09.469Z,2.00
2023-02-05T11:14:43.650Z,1.70
2023-02-05T11:17:24.681Z,2.80
2023-02-05T11:20:06.586Z,2.30
2023-02-05T11:22:42.172Z,2.07
2023-02-05T11:25:20.373Z,1.90
2023-02-05T11:27:55.799Z,2.00
2023-02-05T11:30:51.967Z,1.53
2023-02-05T11:33:32.424Z,1.40
2023-02-05T11:36:05.685Z,1.50
2023-02-05T11:38:46.959Z,1.70
2023-02-05T11:41:30.417Z,1.53
2023-02-05T11:44:03.703Z,1.47
2023-02-05T11:46:45.574Z,1.30
2023-02-05T11:49:24.335Z,1.87
2023-02-05T11:51:58.061Z,1.70
2023-02-05T11:54:35.335Z,2.30
2023-02-05T11:57:08.822Z,2.63
2023-02-05T11:59:39.814Z,2.80
2023-02-05T12:02:34.023Z,1.90
2023-02-05T12:05:15.084Z,2.60
2023-02-05T12:07:51.248Z,2.43
2023-02-05T12:10:31.468Z,2.90
2023-02-05T12:13:12.886Z,2.97
2023-02-05T12:15:53.888Z,2.73
2023-02-05T12:18:34.049Z,2.73
2023-02-05T12:21:16.125Z,2.90
2023-02-05T12:24:24.288Z,2.77
2023-02-05T12:27:07.753Z,2.90
2023-02-05T12:29:58.577Z,3.00
2023-02-05T12:32:42.787Z,2.67
2023-02-05T12:35:46.368Z,3.27
2023-02-05T12:38:32.057Z,3.13
2023-02-05T12:41:16.943Z,2.60
2023-02-05T12:43:59.201Z,2.77
2023-02-05T12:46:47.874Z,3.10
2023-02-05T12:49:37.363Z,3.20
2023-02-05T12:52:26.102Z,3.40
2023-02-05T12:55:13.634Z,3.27
2023-02-05T12:57:48.243Z,2.93
2023-02-05T13:00:29.371Z,2.67
2023-02-05T13:03:07.200Z,3.10
2023-02-05T13:05:42.182Z,2.80
2023-02-05T13:08:22.890Z,3.20
2023-02-05T13:10:57.308Z,3.30
2023-02-05T13:13:33.155Z,3.13
2023-02-05T13:16:14.257Z,2.90
2023-02-05T13:18:49.549Z,3.13
2023-02-05T13:21:35.219Z,3.00
2023-02-05T13:24:38.721Z,2.53
2023-02-05T13:27:34.668Z,2.70
2023-02-05T13:30:07.952Z,2.50
2023-02-05T13:32:43.393Z,2.20
2023-02-05T13:35:14.256Z,3.10
2023-02-05T13:38:10.419Z,3.03
2023-02-05T13:41:19.268Z,3.10
2023-02-05T13:44:22.914Z,3.50
2023-02-05T13:47:34.485Z,4.30
2023-02-05T13:50:35.339Z,4.53
2023-02-05T13:53:31.052Z,5.13
2023-02-05T13:56:31.745Z,4.97
2023-02-05T13:59:05.382Z,4.90
2023-02-05T14:01:42.289Z,5.43
2023-02-05T14:04:23.359Z,4.00
2023-02-05T14:07:01.659Z,4.13
2023-02-05T14:09:40.112Z,4.43
2023-02-05T14:12:25.754Z,3.73
2023-02-05T14:15:26.308Z,3.30
2023-02-05T14:17:58.404Z,3.50
2023-02-05T14:20:35.606Z,3.80
2023-02-05T14:23:14.729Z,3.90
2023-02-05T14:26:12.862Z,4.47
2023-02-05T14:28:52.366Z,4.67
2023-02-05T14:31:59.099Z,5.13
2023-02-05T14:35:07.396Z,4.57
2023-02-05T14:37:43.465Z,4.30
2023-02-05T14:40:17.363Z,4.63
2023-02-05T14:42:53.284Z,4.00
2023-02-05T14:45:27.845Z,4.03
2023-02-05T14:48:00.008Z,4.40
2023-02-05T14:50:32.608Z,4.43
2023-02-05T14:53:05.815Z,4.53
2023-02-05T14:55:43.406Z,4.20
2023-02-05T14:58:28.297Z,4.33
2023-02-05T15:01:29.001Z,4.27
2023-02-05T15:04:02.209Z,3.87
2023-02-05T15:06:40.996Z,4.03
2023-02-05T15:09:20.820Z,3.60
2023-02-05T15:12:11.603Z,3.53
2023-02-05T15:14:57.769Z,4.20
2023-02-05T15:17:52.077Z,3.87
2023-02-05T15:20:33.982Z,4.27
2023-02-05T15:23:09.607Z,3.87
2023-02-05T15:25:49.860Z,3.77
2023-02-05T15:28:28.392Z,3.80
2023-02-05T15:31:25.889Z,4.20
2023-02-05T15:34:05.414Z,4.37
2023-02-05T15:36:42.945Z,4.70
2023-02-05T15:39:27.181Z,4.47
2023-02-05T15:42:01.620Z,4.70
2023-02-05T15:44:34.824Z,4.30
2023-02-05T15:47:15.410Z,3.53
2023-02-05T15:49:49.175Z,3.80
2023-02-05T15:52:23.496Z,3.70
2023-02-05T15:55:00.598Z,3.30
2023-02-05T15:57:33.361Z,3.73
2023-02-05T16:00:05.214Z,5.40
2023-02-05T16:02:39.945Z,3.60
2023-02-05T16:05:21.212Z,3.50
2023-02-05T16:07:55.513Z,3.20
2023-02-05T16:10:30.955Z,3.00
2023-02-05T16:13:02.618Z,3.83
2023-02-05T16:15:38.767Z,5.03
2023-02-05T16:18:20.310Z,4.00
2023-02-05T16:20:57.385Z,4.90
2023-02-05T16:23:32.871Z,4.10
2023-02-05T16:26:07.411Z,4.53
2023-02-05T16:28:42.668Z,3.60
2023-02-05T16:31:20.626Z,3.57
2023-02-05T16:34:01.027Z,3.37
2023-02-05T16:36:34.701Z,3.73
2023-02-05T16:39:09.382Z,4.17
2023-02-05T16:41:42.448Z,4.47
2023-02-05T16:44:30.130Z,3.80
2023-02-05T16:47:19.291Z,3.53
2023-02-05T16:49:55.631Z,4.40
2023-02-05T16:52:35.585Z,3.97
2023-02-05T16:55:26.458Z,3.30
2023-02-05T16:57:59.329Z,3.40
2023-02-05T17:00:31.798Z,2.90
2023-02-05T17:03:08.838Z,3.30
2023-02-05T17:05:42.317Z,75.47
2023-02-05T17:08:14.933Z,7.80
2023-02-05T17:10:53.341Z,5.00
2023-02-05T17:13:32.673Z,3.73
2023-02-05T17:16:22.075Z,4.20
2023-02-05T17:19:01.685Z,3.87
2023-02-05T17:21:42.042Z,4.20
2023-02-05T17:24:14.899Z,3.53
2023-02-05T17:26:45.904Z,3.03
2023-02-05T17:29:18.499Z,3.77
2023-02-05T17:31:50.631Z,3.63
2023-02-05T17:34:23.482Z,5.07
2023-02-05T17:36:57.181Z,4.07
2023-02-05T17:39:30.212Z,3.27
2023-02-05T17:42:10.169Z,3.30
2023-02-05T17:44:53.254Z,3.57
2023-02-05T17:47:24.055Z,3.53
2023-02-05T17:50:19.429Z,3.93
2023-02-05T17:52:52.819Z,3.70
2023-02-05T17:55:26.993Z,3.93
2023-02-05T17:57:57.964Z,3.60
2023-02-05T18:00:34.803Z,4.00
2023-02-05T18:03:05.634Z,3.90
2023-02-05T18:05:36.393Z,3.93
2023-02-05T18:08:09.865Z,3.77
2023-02-05T18:13:30.892Z,5.00
2023-02-05T18:16:05.709Z,3.70
2023-02-05T18:18:42.211Z,3.30
2023-02-05T18:21:13.094Z,4.47
2023-02-05T18:23:46.672Z,4.33
2023-02-05T18:26:20.632Z,5.03
2023-02-05T18:28:51.758Z,4.73
2023-02-05T18:31:22.853Z,4.50
2023-02-05T18:33:54.515Z,4.33
2023-02-05T18:36:25.386Z,4.93
2023-02-05T18:38:59.317Z,4.17
2023-02-05T18:41:30.987Z,3.57
2023-02-05T18:44:01.950Z,4.10
2023-02-05T18:46:32.766Z,3.83
2023-02-05T18:49:03.662Z,4.07
2023-02-05T18:51:34.371Z,3.23
2023-02-05T18:54:08.220Z,3.83
2023-02-05T18:56:39.007Z,4.00
2023-02-05T18:59:11.866Z,4.40
2023-02-05T19:01:43.627Z,4.20
2023-02-05T19:04:18.591Z,3.83
2023-02-05T19:06:53.342Z,3.43
2023-02-05T19:09:28.344Z,4.23
2023-02-05T19:11:59.132Z,3.67
2023-02-05T19:14:30.060Z,3.53
2023-02-05T19:17:00.818Z,3.90
2023-02-05T19:19:31.626Z,3.70
2023-02-05T19:22:09.221Z,3.53
2023-02-05T19:24:43.402Z,3.80
2023-02-05T19:27:14.497Z,3.57
2023-02-05T19:29:45.405Z,4.20
2023-02-05T19:32:16.092Z,3.93
2023-02-05T19:34:47.049Z,3.60
2023-02-05T19:37:17.768Z,4.53
2023-02-05T19:39:51.151Z,3.00
2023-02-05T19:42:21.927Z,3.70
2023-02-05T19:44:52.769Z,3.80
2023-02-05T19:47:23.797Z,3.87
2023-02-05T19:49:54.520Z,12.67
2023-02-05T19:52:28.360Z,5.50
2023-02-05T19:55:01.775Z,3.63
2023-02-05T19:57:32.494Z,3.30
2023-02-05T20:00:03.328Z,2.83
2023-02-05T20:02:35.438Z,2.60
2023-02-05T20:05:06.525Z,3.20
2023-02-05T20:07:38.379Z,2.97
2023-02-05T20:10:14.826Z,3.63
2023-02-05T20:12:47.982Z,3.03
2023-02-05T20:15:18.970Z,2.83
2023-02-05T20:17:51.106Z,3.00
2023-02-05T20:20:32.850Z,4.27
2023-02-05T20:23:04.272Z,5.43
2023-02-05T20:25:40.698Z,2.83
2023-02-05T20:28:21.731Z,2.60
2023-02-05T20:33:48.234Z,3.30
2023-02-05T20:36:19.418Z,3.10
2023-02-05T20:38:50.153Z,2.70
2023-02-05T20:41:23.645Z,3.40
2023-02-05T20:43:54.608Z,3.60
2023-02-05T20:46:25.602Z,3.20
2023-02-05T20:48:56.410Z,4.13
2023-02-05T20:51:27.313Z,3.50
2023-02-05T20:54:01.856Z,4.80
2023-02-05T20:56:37.826Z,3.43
2023-02-05T20:59:10.620Z,3.87
2023-02-05T21:01:42.713Z,3.40
2023-02-05T21:04:13.750Z,3.70
2023-02-05T21:06:44.601Z,4.60
2023-02-05T21:09:15.884Z,4.53
2023-02-05T21:11:50.127Z,3.80
2023-02-05T21:14:20.859Z,4.03
2023-02-05T21:16:51.658Z,3.27
2023-02-05T21:19:23.084Z,4.23
2023-02-05T21:21:53.839Z,3.90
2023-02-05T21:24:24.672Z,4.23
2023-02-05T21:26:58.593Z,3.43
2023-02-05T21:29:29.418Z,3.70
2023-02-05T21:32:18.270Z,3.13
2023-02-05T21:34:49.016Z,5.10
2023-02-05T21:37:20.864Z,3.60
2023-02-05T21:39:52.969Z,3.77
2023-02-05T21:42:30.808Z,3.23
2023-02-05T21:45:06.895Z,4.60
2023-02-05T21:47:37.664Z,3.43
2023-02-05T21:50:09.244Z,3.40
2023-02-05T21:52:40.000Z,4.07
2023-02-05T21:55:11.464Z,4.13
2023-02-05T22:00:42.881Z,3.67
2023-02-05T22:03:14.079Z,3.73
2023-02-05T22:05:44.812Z,3.70
2023-02-05T22:08:15.937Z,3.43
2023-02-05T22:10:46.668Z,4.00
2023-02-05T22:13:20.018Z,4.03
2023-02-05T22:15:51.064Z,2.77
2023-02-05T22:18:21.880Z,3.47
2023-02-05T22:20:52.650Z,4.23
2023-02-05T22:23:23.430Z,3.73
2023-02-05T22:26:03.022Z,4.20
2023-02-05T22:28:38.127Z,3.43
2023-02-05T22:31:12.207Z,3.30
2023-02-05T22:33:44.882Z,3.90
2023-02-05T22:36:17.382Z,3.60
2023-02-05T22:38:48.291Z,3.70
2023-02-05T22:41:21.217Z,5.03
2023-02-05T22:43:56.164Z,2.93
2023-02-05T22:46:33.718Z,3.50
2023-02-05T22:49:05.950Z,3.33
2023-02-05T22:51:43.306Z,4.70
2023-02-05T22:54:16.060Z,3.90
2023-02-05T22:56:47.260Z,5.37
2023-02-05T22:59:20.969Z,4.60
2023-02-05T23:01:51.758Z,4.07
2023-02-05T23:04:22.490Z,3.17
2023-02-05T23:06:53.304Z,3.70
2023-02-05T23:09:24.010Z,3.20
2023-02-05T23:11:57.393Z,5.10
2023-02-05T23:14:30.987Z,4.23
2023-02-05T23:17:01.866Z,4.70
2023-02-05T23:19:32.676Z,5.30
2023-02-05T23:22:03.713Z,4.50
2023-02-05T23:24:37.259Z,4.40
2023-02-05T23:27:08.334Z,3.83
2023-02-05T23:29:41.901Z,3.88
2023-02-05T23:32:15.186Z,4.63
2023-02-05T23:34:45.930Z,4.03
2023-02-05T23:37:17.554Z,4.73
2023-02-05T23:39:48.234Z,4.20
2023-02-05T23:42:18.947Z,4.65
2023-02-05T23:44:52.208Z,5.10
2023-02-05T23:47:22.914Z,4.97
2023-02-05T23:49:53.632Z,4.17
2023-02-05T23:52:24.622Z,3.90
2023-02-05T23:54:58.579Z,4.68
2023-02-05T23:57:29.405Z,4.90
